Time;durP1;ratioP1;P1;durP2;ratioP2;P2;SDS_P1;SDS_P2;PMS_P1;PMS_P2;Temp;Humidity;BMP_temperature;BMP_pressure;BME280_temperature;BME280_humidity;BME280_pressure;Samples;Min_cycle;Max_cycle;Signal;HPM_P1;HPM_P2
2021/12/15 00:01:19;;;;;;;6.78;3.08;;;11.50;98.90;;;;;;5037594;28;20057;-60
2021/12/15 00:03:46;;;;;;;8.45;3.10;;;11.50;98.90;;;;;;5036105;28;20127;-61
2021/12/15 00:06:17;;;;;;;5.05;2.70;;;11.50;98.90;;;;;;5036530;28;20510;-61
2021/12/15 00:08:49;;;;;;;5.40;3.80;;;11.50;98.80;;;;;;5044135;28;20068;-60
2021/12/15 00:11:17;;;;;;;6.43;3.08;;;11.50;98.80;;;;;;5033135;28;20138;-61
2021/12/15 00:13:45;;;;;;;6.93;3.85;;;11.50;98.80;;;;;;5040984;28;20052;-60
2021/12/15 00:16:12;;;;;;;4.50;2.78;;;11.50;98.80;;;;;;5034748;28;20100;-61
2021/12/15 00:18:44;;;;;;;6.30;3.50;;;11.50;98.80;;;;;;5053953;28;20045;-62
2021/12/15 00:21:13;;;;;;;4.47;2.55;;;11.50;98.80;;;;;;5037097;28;20557;-60
2021/12/15 00:23:40;;;;;;;7.15;3.58;;;11.50;98.80;;;;;;5051941;28;20088;-60
2021/12/15 00:26:07;;;;;;;6.63;3.10;;;11.50;98.80;;;;;;5039222;28;20075;-61
2021/12/15 00:28:41;;;;;;;4.92;2.94;;;11.50;98.90;;;;;;4893123;28;10001097;-60
2021/12/15 00:31:08;;;;;;;3.63;2.88;;;11.50;98.90;;;;;;5039441;28;20285;-61
2021/12/15 00:33:35;;;;;;;6.43;3.17;;;11.40;98.80;;;;;;5025401;28;20060;-60
2021/12/15 00:36:02;;;;;;;5.43;3.63;;;11.40;98.80;;;;;;5047873;28;20064;-61
2021/12/15 00:38:29;;;;;;;5.30;3.17;;;11.40;98.80;;;;;;5045001;28;20072;-61
2021/12/15 00:40:56;;;;;;;6.00;3.47;;;11.30;98.80;;;;;;5043589;28;20041;-62
2021/12/15 00:43:23;;;;;;;6.53;3.92;;;11.30;98.80;;;;;;5049962;28;20144;-63
2021/12/15 00:45:49;;;;;;;6.85;3.50;;;11.30;98.80;;;;;;5048460;28;20084;-62
2021/12/15 00:48:17;;;;;;;9.65;5.80;;;11.30;98.90;;;;;;5042056;28;20572;-63
2021/12/15 00:50:44;;;;;;;6.18;3.58;;;11.30;99.10;;;;;;5032242;28;20049;-63
2021/12/15 00:53:11;;;;;;;9.52;4.22;;;11.30;99.10;;;;;;5036086;28;20079;-63
2021/12/15 00:55:38;;;;;;;6.22;3.28;;;11.30;99.20;;;;;;5059996;28;20076;-63
2021/12/15 00:58:05;;;;;;;7.47;4.43;;;11.30;99.20;;;;;;5025225;28;20045;-63
2021/12/15 01:00:48;;;;;;;7.00;3.70;;;11.30;99.20;;;;;;5033002;28;20097;-63
2021/12/15 01:03:15;;;;;;;15.45;4.85;;;11.30;99.20;;;;;;5033030;28;20052;-64
2021/12/15 01:05:45;;;;;;;5.88;3.55;;;11.20;99.30;;;;;;5055494;28;20051;-63
2021/12/15 01:08:16;;;;;;;6.22;4.18;;;11.30;99.20;;;;;;5041696;28;20096;-62
2021/12/15 01:21:42;;;;;;;10.63;6.53;;;11.30;99.30;;;;;;5052706;28;20041;-63
2021/12/15 01:24:09;;;;;;;6.28;3.17;;;11.30;99.30;;;;;;5042848;28;20074;-62
2021/12/15 01:26:36;;;;;;;8.82;3.65;;;11.30;99.30;;;;;;5060048;28;20045;-63
2021/12/15 01:29:04;;;;;;;7.00;2.80;;;11.30;99.20;;;;;;5039876;28;20049;-62
2021/12/15 01:31:31;;;;;;;5.03;2.95;;;11.30;99.20;;;;;;5054860;28;20046;-62
2021/12/15 01:33:58;;;;;;;5.05;2.78;;;11.30;99.10;;;;;;5039449;28;20053;-62
2021/12/15 01:36:24;;;;;;;4.78;2.83;;;11.30;99.00;;;;;;5031057;28;20072;-62
2021/12/15 01:38:51;;;;;;;4.63;2.92;;;11.40;99.00;;;;;;5042403;28;20045;-63
2021/12/15 01:41:21;;;;;;;5.53;2.83;;;11.40;98.90;;;;;;5055655;28;20052;-63
2021/12/15 01:46:53;;;;;;;5.30;2.63;;;11.40;98.90;;;;;;5039472;28;20057;-62
2021/12/15 01:46:55;;;;;;;4.55;2.72;;;11.40;98.80;;;;;;5039330;28;20108;-63
2021/12/15 01:49:40;;;;;;;5.45;3.42;;;11.40;98.80;;;;;;5024222;28;20045;-63
2021/12/15 01:52:14;;;;;;;8.10;2.65;;;11.40;98.80;;;;;;5024901;28;20084;-63
2021/12/15 01:54:44;;;;;;;5.70;2.50;;;11.40;98.70;;;;;;5048484;28;20484;-63
2021/12/15 01:57:11;;;;;;;4.65;2.42;;;11.40;98.70;;;;;;5021020;28;20040;-63
2021/12/15 01:59:38;;;;;;;3.75;2.03;;;11.50;98.60;;;;;;5045271;28;20091;-63
2021/12/15 02:02:05;;;;;;;4.55;2.20;;;11.50;98.60;;;;;;5051530;28;20089;-63
2021/12/15 02:04:32;;;;;;;4.32;3.65;;;11.50;98.60;;;;;;5048472;28;20448;-62
2021/12/15 02:07:01;;;;;;;5.32;2.15;;;11.50;98.40;;;;;;5048040;28;20558;-63
2021/12/15 02:12:15;;;;;;;9.32;2.17;;;11.50;98.40;;;;;;5047399;28;20053;-62
2021/12/15 02:14:42;;;;;;;5.28;2.35;;;11.50;98.40;;;;;;5020372;28;20079;-62
2021/12/15 02:17:09;;;;;;;9.65;1.85;;;11.50;98.40;;;;;;5055512;28;20044;-63
2021/12/15 02:19:36;;;;;;;6.30;2.08;;;11.50;98.60;;;;;;5049156;28;20077;-63
2021/12/15 02:22:03;;;;;;;6.45;2.38;;;11.50;98.50;;;;;;5053691;28;20721;-63
2021/12/15 02:24:32;;;;;;;4.32;1.92;;;11.50;98.50;;;;;;5049880;28;20046;-63
2021/12/15 02:27:00;;;;;;;3.95;2.30;;;11.50;98.50;;;;;;5046670;28;20123;-62
2021/12/15 02:29:31;;;;;;;4.68;2.35;;;11.50;98.60;;;;;;5034430;28;20523;-63
2021/12/15 02:32:11;;;;;;;6.20;2.55;;;11.50;98.60;;;;;;5048417;28;20079;-63
2021/12/15 02:37:23;;;;;;;4.63;2.28;;;11.50;98.60;;;;;;5052040;28;20063;-63
2021/12/15 02:40:01;;;;;;;7.30;2.38;;;11.50;98.60;;;;;;5046573;28;20049;-63
2021/12/15 02:42:33;;;;;;;5.03;2.13;;;11.50;98.60;;;;;;5049711;28;20072;-63
2021/12/15 02:45:00;;;;;;;8.18;2.45;;;11.50;98.50;;;;;;5045411;28;20103;-62
2021/12/15 02:47:28;;;;;;;7.25;2.17;;;11.50;98.30;;;;;;5043477;28;20102;-62
2021/12/15 02:49:56;;;;;;;4.35;2.30;;;11.60;98.40;;;;;;5033715;28;20041;-63
2021/12/15 02:52:23;;;;;;;2.38;1.73;;;11.50;98.40;;;;;;5037836;28;20056;-62
2021/12/15 02:54:49;;;;;;;5.70;2.08;;;11.50;98.20;;;;;;5038204;28;20037;-63
2021/12/15 02:57:17;;;;;;;4.35;1.77;;;11.60;98.30;;;;;;5042066;28;20082;-63
2021/12/15 02:59:54;;;;;;;3.85;1.35;;;11.50;97.70;;;;;;5052610;28;20072;-59
2021/12/15 03:05:09;;;;;;;2.42;1.33;;;11.60;97.80;;;;;;5050180;28;20040;-63
2021/12/15 03:15:35;;;;;;;3.05;1.48;;;11.70;97.70;;;;;;5037920;28;20052;-63
2021/12/15 03:18:06;;;;;;;1.88;1.33;;;11.60;97.60;;;;;;5041254;28;20057;-63
2021/12/15 03:20:42;;;;;;;3.00;1.50;;;11.70;97.60;;;;;;5039288;28;20045;-63
2021/12/15 03:23:10;;;;;;;4.80;1.48;;;11.70;97.40;;;;;;5040336;28;20457;-63
2021/12/15 03:25:36;;;;;;;4.45;1.20;;;11.70;97.40;;;;;;5048968;28;20049;-63
2021/12/15 03:33:42;;;;;;;5.13;1.85;;;11.70;97.10;;;;;;5020985;28;20037;-63
2021/12/15 03:36:13;;;;;;;4.18;1.60;;;11.70;97.30;;;;;;5043907;28;20045;-63
2021/12/15 03:38:40;;;;;;;2.70;1.25;;;11.80;97.10;;;;;;5042616;28;20048;-62
2021/12/15 03:41:08;;;;;;;3.20;1.42;;;11.80;97.20;;;;;;5052173;28;20053;-62
2021/12/15 03:43:36;;;;;;;8.05;2.38;;;11.80;96.80;;;;;;5040850;28;20049;-63
2021/12/15 03:46:12;;;;;;;3.03;1.65;;;11.80;96.50;;;;;;5056250;28;20512;-62
2021/12/15 03:48:40;;;;;;;5.55;1.20;;;11.80;96.10;;;;;;5040157;28;20503;-63
2021/12/15 03:51:12;;;;;;;3.17;1.20;;;11.90;96.70;;;;;;5055969;28;20191;-62
2021/12/15 03:53:40;;;;;;;4.18;1.30;;;11.90;96.60;;;;;;5022240;28;20056;-63
2021/12/15 03:56:10;;;;;;;2.58;1.30;;;11.90;96.50;;;;;;5031830;28;20237;-63
2021/12/15 03:58:37;;;;;;;2.97;1.25;;;11.90;96.20;;;;;;5039873;28;20049;-62
2021/12/15 04:01:07;;;;;;;6.30;1.83;;;11.90;96.30;;;;;;5052005;28;20084;-62
2021/12/15 04:03:37;;;;;;;4.95;1.35;;;11.90;96.40;;;;;;5022319;28;20049;-63
2021/12/15 04:06:05;;;;;;;6.90;2.28;;;11.90;96.50;;;;;;5042310;28;20077;-63
2021/12/15 04:08:34;;;;;;;4.50;1.38;;;11.90;95.90;;;;;;5018652;28;20046;-63
2021/12/15 04:11:01;;;;;;;4.20;1.25;;;11.90;96.00;;;;;;5046114;28;20049;-63
2021/12/15 04:13:28;;;;;;;4.53;1.25;;;11.90;96.00;;;;;;5052816;28;20068;-63
2021/12/15 04:16:03;;;;;;;5.63;1.50;;;11.90;96.20;;;;;;5044196;28;20079;-62
2021/12/15 04:18:31;;;;;;;4.40;1.55;;;11.90;96.10;;;;;;5050518;28;20137;-62
2021/12/15 04:20:57;;;;;;;2.63;1.70;;;11.90;96.20;;;;;;5043091;28;20443;-62
2021/12/15 04:23:24;;;;;;;3.28;1.33;;;11.90;96.20;;;;;;5021862;28;20116;-63
2021/12/15 04:25:54;;;;;;;4.30;1.05;;;11.90;96.10;;;;;;5031714;28;20037;-63
2021/12/15 04:28:26;;;;;;;6.05;1.27;;;11.90;95.90;;;;;;5035126;28;20061;-62
2021/12/15 04:30:55;;;;;;;4.03;1.35;;;11.90;95.40;;;;;;5020330;28;20088;-62
2021/12/15 04:33:31;;;;;;;3.42;1.00;;;11.90;95.10;;;;;;5035779;28;20099;-63
2021/12/15 04:35:59;;;;;;;5.85;1.40;;;12.00;94.60;;;;;;5018009;28;20133;-63
2021/12/15 04:38:27;;;;;;;5.55;2.10;;;12.00;94.50;;;;;;5031056;28;20202;-63
2021/12/15 04:40:54;;;;;;;5.00;1.20;;;12.00;95.20;;;;;;5038570;28;20081;-63
2021/12/15 04:43:21;;;;;;;3.78;0.93;;;12.00;94.80;;;;;;5037362;28;20084;-63
2021/12/15 04:45:48;;;;;;;2.97;1.65;;;12.00;94.60;;;;;;5020515;28;20080;-63
2021/12/15 04:48:14;;;;;;;7.82;1.13;;;12.00;94.20;;;;;;5037330;28;20140;-63
2021/12/15 04:50:41;;;;;;;4.30;1.15;;;12.00;94.80;;;;;;5019880;28;20480;-63
2021/12/15 04:53:08;;;;;;;4.35;1.35;;;12.00;94.60;;;;;;5041977;28;20444;-62
2021/12/15 04:55:36;;;;;;;4.05;1.17;;;12.00;94.90;;;;;;5031335;28;20066;-63
2021/12/15 04:58:04;;;;;;;6.35;1.65;;;12.00;94.90;;;;;;5036325;28;20049;-62
2021/12/15 05:00:32;;;;;;;3.80;1.00;;;12.00;95.10;;;;;;5026744;28;20046;-62
2021/12/15 05:02:59;;;;;;;2.25;1.10;;;12.00;94.80;;;;;;5033906;28;20046;-62
2021/12/15 05:05:26;;;;;;;12.50;3.70;;;12.00;94.70;;;;;;5025224;28;20050;-63
2021/12/15 05:07:53;;;;;;;3.58;1.10;;;12.00;95.10;;;;;;5016416;28;20072;-63
2021/12/15 05:10:20;;;;;;;3.15;1.30;;;12.00;95.00;;;;;;5019455;28;20079;-62
2021/12/15 05:12:47;;;;;;;4.15;1.20;;;12.00;95.20;;;;;;5015809;28;20053;-62
2021/12/15 05:15:14;;;;;;;2.88;1.48;;;12.10;95.30;;;;;;5022302;28;20433;-61
2021/12/15 05:17:41;;;;;;;5.90;2.97;;;12.00;95.10;;;;;;5027657;28;20516;-62
2021/12/15 05:20:09;;;;;;;4.50;1.73;;;12.00;94.60;;;;;;5025283;28;20154;-62
2021/12/15 05:22:36;;;;;;;5.47;1.20;;;12.10;94.70;;;;;;5031534;28;20524;-63
2021/12/15 05:25:04;;;;;;;9.13;1.40;;;12.10;94.70;;;;;;5040762;28;20040;-62
2021/12/15 05:27:30;;;;;;;3.85;1.65;;;12.10;94.90;;;;;;5047804;28;20094;-62
2021/12/15 05:29:57;;;;;;;3.10;1.48;;;12.10;95.00;;;;;;5051350;28;20045;-62
2021/12/15 05:32:24;;;;;;;3.42;1.40;;;12.10;95.10;;;;;;5045969;28;20099;-62
2021/12/15 05:34:54;;;;;;;6.72;1.35;;;12.10;95.20;;;;;;5052456;28;20527;-62
2021/12/15 05:37:22;;;;;;;3.75;1.70;;;12.10;95.30;;;;;;5042200;28;20194;-61
2021/12/15 05:39:49;;;;;;;5.63;2.17;;;12.20;95.10;;;;;;5041725;28;20498;-62
2021/12/15 05:42:17;;;;;;;7.57;1.80;;;12.10;95.30;;;;;;5042796;28;20124;-62
2021/12/15 05:44:45;;;;;;;7.60;2.10;;;12.10;95.40;;;;;;5053810;28;20088;-62
2021/12/15 05:47:12;;;;;;;7.55;1.90;;;12.10;95.50;;;;;;5041879;28;20081;-62
2021/12/15 05:49:39;;;;;;;8.57;2.17;;;12.10;95.60;;;;;;5051784;28;20049;-62
2021/12/15 05:52:06;;;;;;;6.85;2.25;;;12.10;95.60;;;;;;5042099;28;20052;-62
2021/12/15 05:54:33;;;;;;;5.93;1.92;;;12.10;95.80;;;;;;5047887;28;20096;-62
2021/12/15 05:57:00;;;;;;;5.10;1.98;;;12.10;95.80;;;;;;5040573;28;20042;-62
2021/12/15 05:59:27;;;;;;;4.95;2.13;;;12.10;95.90;;;;;;5052516;28;20049;-62
2021/12/15 06:01:57;;;;;;;15.32;2.10;;;12.10;96.00;;;;;;5043383;28;20077;-63
2021/12/15 06:04:24;;;;;;;9.75;2.92;;;12.10;96.00;;;;;;5022071;28;20411;-62
2021/12/15 06:06:51;;;;;;;5.63;2.60;;;12.10;96.10;;;;;;5031070;28;20042;-62
2021/12/15 06:09:17;;;;;;;5.72;2.40;;;12.10;96.20;;;;;;5038175;28;20393;-63
2021/12/15 06:11:49;;;;;;;3.95;2.30;;;12.00;96.20;;;;;;5047082;28;20103;-63
2021/12/15 06:14:23;;;;;;;6.45;2.28;;;12.10;96.30;;;;;;5051441;28;20094;-62
2021/12/15 06:16:54;;;;;;;4.53;2.05;;;12.00;96.30;;;;;;5041163;28;20045;-61
2021/12/15 06:19:21;;;;;;;5.72;2.58;;;12.00;96.30;;;;;;5050390;28;20063;-62
2021/12/15 06:21:48;;;;;;;6.03;2.60;;;12.10;96.40;;;;;;5056571;28;20115;-62
2021/12/15 06:24:15;;;;;;;11.65;2.60;;;12.00;96.30;;;;;;5044500;28;20083;-61
2021/12/15 06:26:42;;;;;;;4.32;3.15;;;12.00;96.30;;;;;;5047337;28;20082;-62
2021/12/15 06:29:08;;;;;;;11.27;2.50;;;12.00;96.30;;;;;;5024231;28;20077;-61
2021/12/15 06:31:35;;;;;;;7.50;2.70;;;12.00;96.20;;;;;;5015897;28;20071;-62
2021/12/15 06:34:02;;;;;;;12.68;2.22;;;12.00;96.10;;;;;;5039901;28;20151;-61
2021/12/15 06:36:30;;;;;;;5.50;2.15;;;12.00;96.20;;;;;;5051853;28;20499;-62
2021/12/15 06:38:57;;;;;;;8.13;2.35;;;12.10;96.20;;;;;;5041927;28;20053;-62
2021/12/15 06:41:24;;;;;;;6.85;2.05;;;12.10;96.10;;;;;;5047277;28;20581;-62
2021/12/15 06:43:55;;;;;;;7.43;2.25;;;12.10;96.00;;;;;;5037765;28;20504;-62
2021/12/15 06:59:56;;;;;;;5.60;1.98;;;12.10;95.50;;;;;;5040932;28;20057;-62
2021/12/15 07:02:23;;;;;;;10.00;2.90;;;12.20;95.40;;;;;;5051339;28;20080;-63
2021/12/15 07:04:50;;;;;;;13.63;3.45;;;12.20;95.50;;;;;;5015763;28;20051;-62
2021/12/15 07:07:17;;;;;;;10.13;2.78;;;12.20;95.20;;;;;;5052345;28;20061;-61
2021/12/15 07:09:44;;;;;;;5.43;1.80;;;12.20;95.30;;;;;;5040215;28;20045;-62
2021/12/15 07:12:11;;;;;;;11.57;3.67;;;12.20;95.30;;;;;;5053529;28;20045;-62
2021/12/15 07:14:38;;;;;;;8.18;2.33;;;12.20;95.30;;;;;;5042016;28;20057;-59
2021/12/15 07:17:10;;;;;;;10.32;3.20;;;12.20;95.30;;;;;;5052324;28;20354;-59
2021/12/15 07:20:03;;;;;;;3.53;1.48;;;12.20;95.20;;;;;;5041852;28;20088;-58
2021/12/15 07:24:56;;;;;;;10.80;2.90;;;12.30;95.30;;;;;;5043654;28;20132;-59
2021/12/15 07:27:23;;;;;;;6.10;1.70;;;12.30;95.50;;;;;;5046338;28;20044;-59
2021/12/15 07:29:50;;;;;;;12.02;2.17;;;12.30;95.30;;;;;;5040663;28;20134;-60
2021/12/15 07:32:17;;;;;;;6.25;1.98;;;12.30;95.30;;;;;;5051307;28;20121;-59
2021/12/15 07:34:44;;;;;;;13.43;2.35;;;12.30;95.30;;;;;;5042043;28;20087;-60
2021/12/15 07:37:11;;;;;;;6.63;1.58;;;12.30;95.30;;;;;;5048922;28;20127;-60
2021/12/15 07:39:43;;;;;;;17.63;2.58;;;12.20;95.30;;;;;;5043004;28;20049;-65
2021/12/15 07:42:12;;;;;;;7.50;2.38;;;12.30;95.40;;;;;;5047178;28;20084;-56
2021/12/15 07:44:39;;;;;;;11.30;2.40;;;12.30;95.10;;;;;;5039919;28;20095;-64
2021/12/15 07:47:06;;;;;;;5.20;2.15;;;12.30;95.40;;;;;;5041437;28;20078;-57
2021/12/15 07:49:32;;;;;;;11.65;2.40;;;12.30;95.30;;;;;;5037285;28;20578;-56
2021/12/15 07:52:00;;;;;;;7.97;2.10;;;12.30;95.20;;;;;;5038538;28;20041;-57
2021/12/15 07:54:29;;;;;;;6.22;2.42;;;12.30;95.40;;;;;;5039419;28;20095;-56
2021/12/15 07:56:56;;;;;;;4.40;1.90;;;12.30;95.10;;;;;;5025583;28;20076;-55
2021/12/15 07:59:22;;;;;;;5.45;1.92;;;12.30;95.20;;;;;;5043677;28;20066;-57
2021/12/15 08:01:51;;;;;;;7.95;2.00;;;12.30;95.20;;;;;;5034251;28;20136;-57
2021/12/15 08:04:19;;;;;;;7.13;2.08;;;12.30;95.30;;;;;;5046072;28;20720;-57
2021/12/15 08:06:46;;;;;;;13.82;2.25;;;12.30;94.90;;;;;;5034189;28;20095;-57
2021/12/15 08:09:13;;;;;;;4.35;2.00;;;12.30;95.30;;;;;;5038570;28;20083;-56
2021/12/15 08:11:40;;;;;;;10.50;1.95;;;12.30;95.30;;;;;;5019032;28;20135;-55
2021/12/15 08:14:07;;;;;;;11.75;2.40;;;12.30;95.30;;;;;;5045234;28;20160;-57
2021/12/15 08:16:34;;;;;;;5.95;1.85;;;12.40;95.70;;;;;;5047912;28;20103;-59
2021/12/15 08:19:01;;;;;;;9.88;2.53;;;12.40;95.40;;;;;;5038945;28;20088;-59
2021/12/15 08:21:30;;;;;;;3.85;1.88;;;12.40;95.40;;;;;;5047080;28;20045;-59
2021/12/15 08:23:57;;;;;;;10.55;2.65;;;12.40;95.50;;;;;;5049342;28;20099;-60
2021/12/15 08:26:24;;;;;;;11.88;3.00;;;12.40;95.50;;;;;;5053342;28;20049;-59
2021/12/15 08:28:52;;;;;;;14.15;2.47;;;12.40;95.50;;;;;;5047418;28;20102;-59
2021/12/15 08:31:18;;;;;;;7.97;1.90;;;12.40;95.50;;;;;;5054110;28;20504;-59
2021/12/15 08:33:45;;;;;;;7.85;3.17;;;12.40;95.40;;;;;;5040998;28;20114;-59
2021/12/15 08:36:14;;;;;;;11.45;3.05;;;12.40;95.50;;;;;;5051027;28;20067;-60
2021/12/15 08:38:42;;;;;;;12.18;3.50;;;12.40;95.70;;;;;;5040064;28;20072;-58
2021/12/15 08:41:14;;;;;;;9.52;2.50;;;12.40;95.70;;;;;;5055283;28;20500;-58
2021/12/15 08:43:41;;;;;;;4.50;2.65;;;12.40;95.80;;;;;;5039033;28;20052;-59
2021/12/15 08:46:16;;;;;;;8.35;2.72;;;12.40;95.80;;;;;;5053458;28;20076;-58
2021/12/15 08:48:43;;;;;;;8.73;2.42;;;12.50;95.70;;;;;;5037966;28;20044;-60
2021/12/15 08:51:10;;;;;;;11.27;2.67;;;12.50;95.60;;;;;;5035882;28;20048;-61
2021/12/15 08:53:38;;;;;;;6.82;1.98;;;12.50;95.50;;;;;;5033276;28;20570;-60
2021/12/15 08:56:05;;;;;;;10.15;3.17;;;12.50;95.40;;;;;;5051668;28;20364;-60
2021/12/15 08:58:32;;;;;;;4.47;2.42;;;12.50;95.60;;;;;;5041717;28;20045;-59
2021/12/15 09:00:58;;;;;;;21.63;2.85;;;12.50;95.60;;;;;;5049015;28;20046;-59
2021/12/15 09:03:26;;;;;;;8.10;2.90;;;12.50;95.60;;;;;;5039756;28;20055;-59
2021/12/15 09:05:54;;;;;;;11.05;2.95;;;12.50;95.70;;;;;;5037835;28;20052;-60
2021/12/15 09:08:23;;;;;;;15.02;2.83;;;12.50;95.70;;;;;;5038642;28;20053;-60
2021/12/15 09:10:52;;;;;;;7.18;3.33;;;12.50;95.80;;;;;;5047317;28;20041;-60
2021/12/15 09:13:19;;;;;;;11.75;2.50;;;12.50;95.80;;;;;;5037531;28;20085;-59
2021/12/15 09:15:46;;;;;;;10.77;2.83;;;12.40;95.80;;;;;;5052610;28;20052;-60
2021/12/15 09:18:13;;;;;;;8.88;3.22;;;12.50;95.90;;;;;;5047985;28;20060;-59
2021/12/15 09:20:41;;;;;;;10.00;3.05;;;12.40;96.00;;;;;;5044030;28;20049;-59
2021/12/15 09:23:09;;;;;;;13.70;3.70;;;12.50;96.00;;;;;;5044155;28;20057;-60
2021/12/15 09:25:37;;;;;;;10.93;3.35;;;12.50;96.40;;;;;;5048907;28;20053;-60
2021/12/15 09:28:04;;;;;;;7.03;3.25;;;12.50;96.10;;;;;;5042995;28;20049;-59
2021/12/15 09:30:34;;;;;;;10.27;2.97;;;12.50;96.10;;;;;;5045683;28;20045;-61
2021/12/15 09:33:01;;;;;;;9.13;3.65;;;12.50;96.10;;;;;;5048758;28;20449;-59
2021/12/15 09:35:29;;;;;;;10.30;3.10;;;12.50;96.10;;;;;;5036267;28;20053;-60
2021/12/15 09:37:56;;;;;;;6.78;3.25;;;12.50;96.00;;;;;;5049657;28;20098;-59
2021/12/15 09:40:23;;;;;;;10.48;3.55;;;12.50;96.00;;;;;;5039916;28;20053;-60
2021/12/15 09:42:50;;;;;;;15.00;5.47;;;12.50;96.00;;;;;;5056721;28;20500;-60
2021/12/15 09:45:37;;;;;;;12.68;3.53;;;12.50;96.00;;;;;;5043164;28;20103;-60
2021/12/15 10:02:05;;;;;;;13.75;3.25;;;12.60;95.70;;;;;;5044840;28;20094;-60
2021/12/15 10:05:07;;;;;;;7.25;2.25;;;12.60;95.70;;;;;;5037313;28;20055;-60
2021/12/15 10:18:38;;;;;;;9.70;3.47;;;12.70;95.40;;;;;;5046890;28;20049;-59
2021/12/15 10:21:05;;;;;;;7.10;3.10;;;12.70;95.20;;;;;;5040814;28;20049;-59
2021/12/15 10:23:39;;;;;;;10.52;3.40;;;12.70;95.40;;;;;;5039173;28;20496;-59
2021/12/15 10:26:06;;;;;;;8.50;3.10;;;12.70;95.30;;;;;;5041474;28;20049;-59
2021/12/15 10:28:35;;;;;;;7.05;2.63;;;12.70;95.20;;;;;;5049388;28;20069;-59
2021/12/15 10:31:07;;;;;;;10.88;2.45;;;12.80;95.20;;;;;;5043959;28;20267;-60
2021/12/15 10:33:41;;;;;;;7.18;2.83;;;12.80;94.80;;;;;;5052772;28;20459;-60
2021/12/15 10:36:09;;;;;;;13.77;2.90;;;12.80;95.00;;;;;;5043305;28;20107;-60
2021/12/15 10:38:43;;;;;;;6.75;2.25;;;12.80;95.10;;;;;;5049969;28;20206;-60
2021/12/15 10:41:16;;;;;;;7.18;2.65;;;12.80;94.90;;;;;;5042897;28;20076;-60
2021/12/15 10:43:50;;;;;;;11.10;2.87;;;12.90;94.60;;;;;;5049206;28;20036;-60
2021/12/15 10:46:22;;;;;;;9.23;2.58;;;12.90;94.70;;;;;;5044720;28;20318;-60
2021/12/15 10:48:52;;;;;;;8.20;2.30;;;12.90;94.70;;;;;;5048946;28;20044;-60
2021/12/15 10:51:22;;;;;;;10.07;2.72;;;12.90;94.70;;;;;;5044743;28;20051;-60
2021/12/15 10:53:49;;;;;;;9.13;2.75;;;12.90;94.70;;;;;;5046519;28;20080;-60
2021/12/15 10:56:19;;;;;;;11.70;2.88;;;12.90;94.70;;;;;;5041667;28;20140;-60
2021/12/15 10:58:48;;;;;;;4.95;2.10;;;12.90;94.60;;;;;;5029631;28;20094;-59
2021/12/15 11:01:37;;;;;;;11.57;2.70;;;12.90;93.80;;;;;;5045135;28;20045;-59
2021/12/15 11:04:20;;;;;;;9.95;3.15;;;12.90;93.80;;;;;;5050418;28;20072;-59
2021/12/15 11:07:05;;;;;;;7.15;2.53;;;12.90;94.10;;;;;;5040905;28;20046;-60
2021/12/15 11:09:39;;;;;;;13.90;3.45;;;12.90;93.60;;;;;;5051417;28;20542;-60
2021/12/15 11:12:36;;;;;;;11.95;2.55;;;13.00;94.20;;;;;;5047161;28;20087;-59
2021/12/15 11:15:14;;;;;;;5.60;2.30;;;13.00;93.50;;;;;;5019676;28;20046;-59
2021/12/15 11:18:16;;;;;;;12.95;2.53;;;13.00;93.80;;;;;;5038799;28;20045;-60
2021/12/15 11:20:53;;;;;;;7.68;2.33;;;13.00;93.10;;;;;;5031551;28;20060;-59
2021/12/15 11:23:24;;;;;;;10.68;3.13;;;13.00;93.90;;;;;;5040702;28;20045;-60
2021/12/15 11:25:55;;;;;;;6.60;3.13;;;13.10;94.20;;;;;;5034509;28;20174;-59
2021/12/15 11:28:26;;;;;;;4.65;2.13;;;13.10;93.90;;;;;;5039414;28;20052;-59
2021/12/15 11:30:57;;;;;;;11.55;2.60;;;13.10;94.00;;;;;;5050039;28;20492;-59
2021/12/15 11:33:32;;;;;;;9.20;2.30;;;13.20;93.90;;;;;;5046234;28;20404;-59
2021/12/15 11:36:01;;;;;;;9.40;2.42;;;13.10;93.90;;;;;;5038506;28;20064;-59
2021/12/15 11:38:33;;;;;;;4.97;2.60;;;13.20;94.10;;;;;;5028917;28;20098;-60
2021/12/15 11:41:00;;;;;;;11.77;3.17;;;13.20;94.30;;;;;;5029482;28;20580;-61
2021/12/15 11:43:33;;;;;;;8.48;3.08;;;13.20;94.00;;;;;;5030952;28;20500;-58
2021/12/15 11:46:00;;;;;;;6.90;2.92;;;13.20;93.90;;;;;;5050743;28;20114;-60
2021/12/15 11:48:29;;;;;;;9.02;4.88;;;13.20;93.90;;;;;;5054346;28;20049;-60
2021/12/15 11:50:59;;;;;;;8.32;2.38;;;13.20;93.80;;;;;;5037982;28;20227;-59
2021/12/15 11:53:43;;;;;;;10.68;2.50;;;13.20;93.70;;;;;;5041858;28;20118;-59
2021/12/15 11:56:21;;;;;;;11.38;3.05;;;13.20;93.50;;;;;;5038484;28;20048;-59
2021/12/15 11:58:51;;;;;;;7.75;2.47;;;13.30;93.70;;;;;;5051919;28;20041;-60
2021/12/15 12:01:56;;;;;;;7.47;2.80;;;13.20;93.70;;;;;;5035379;28;20072;-59
2021/12/15 12:04:29;;;;;;;11.77;3.17;;;13.30;93.20;;;;;;5035751;28;20049;-59
2021/12/15 12:07:26;;;;;;;10.75;3.20;;;13.30;93.90;;;;;;5047864;28;20049;-59
2021/12/15 12:10:01;;;;;;;7.47;2.80;;;13.20;93.00;;;;;;5011782;28;20135;-60
2021/12/15 12:12:34;;;;;;;5.25;2.72;;;13.20;93.60;;;;;;5032161;28;20464;-60
2021/12/15 12:15:03;;;;;;;6.40;2.80;;;13.30;93.70;;;;;;5041182;28;20046;-60
2021/12/15 12:17:33;;;;;;;6.07;3.17;;;13.30;93.70;;;;;;5047106;28;20110;-59
2021/12/15 12:20:07;;;;;;;8.35;2.63;;;13.30;93.70;;;;;;5018228;28;20080;-60
2021/12/15 12:22:35;;;;;;;10.90;3.22;;;13.30;93.60;;;;;;5046575;28;20743;-60
2021/12/15 12:25:07;;;;;;;6.90;2.80;;;13.30;93.80;;;;;;5022290;28;20046;-60
2021/12/15 12:27:34;;;;;;;7.80;2.85;;;13.30;93.70;;;;;;5052417;28;20492;-61
2021/12/15 12:30:06;;;;;;;10.18;4.53;;;13.30;93.80;;;;;;5046853;28;20049;-60
2021/12/15 12:32:32;;;;;;;7.78;3.00;;;13.30;93.80;;;;;;5029138;28;20049;-60
2021/12/15 12:34:59;;;;;;;9.93;2.75;;;13.30;93.60;;;;;;5053039;28;20068;-61
2021/12/15 12:37:26;;;;;;;16.05;3.55;;;13.30;93.90;;;;;;5046910;28;20569;-60
2021/12/15 12:39:58;;;;;;;11.15;3.83;;;13.30;94.00;;;;;;5035648;28;20083;-61
2021/12/15 12:42:40;;;;;;;14.27;3.15;;;13.30;93.80;;;;;;5057797;28;20044;-60
2021/12/15 12:45:15;;;;;;;7.22;3.20;;;13.30;93.70;;;;;;5053872;28;20056;-59
2021/12/15 12:48:02;;;;;;;6.30;3.00;;;13.30;93.80;;;;;;5053829;28;20106;-60
2021/12/15 12:59:45;;;;;;;9.23;3.60;;;13.30;93.70;;;;;;5031496;28;20115;-60
2021/12/15 13:02:38;;;;;;;4.97;2.90;;;13.30;93.20;;;;;;5026328;28;20072;-60
2021/12/15 13:05:07;;;;;;;9.82;2.65;;;13.30;93.60;;;;;;5048185;28;20135;-60
2021/12/15 13:07:47;;;;;;;14.10;3.42;;;13.30;93.90;;;;;;5043338;28;20553;-60
2021/12/15 13:10:14;;;;;;;9.32;3.42;;;13.20;93.40;;;;;;5047787;28;20528;-61
2021/12/15 13:12:47;;;;;;;12.73;3.50;;;13.30;94.00;;;;;;5038111;28;20122;-60
2021/12/15 13:15:18;;;;;;;9.82;4.28;;;13.30;94.00;;;;;;5046397;28;20057;-61
2021/12/15 13:17:58;;;;;;;9.50;2.65;;;13.30;93.60;;;;;;5037841;28;20501;-60
2021/12/15 13:20:27;;;;;;;13.43;4.30;;;13.20;93.70;;;;;;5039116;28;20054;-60
2021/12/15 13:31:08;;;;;;;11.63;2.78;;;13.20;93.90;;;;;;5041890;28;20081;-61
2021/12/15 13:33:37;;;;;;;8.40;3.25;;;13.20;94.00;;;;;;5048679;28;20095;-61
2021/12/15 13:36:10;;;;;;;8.82;3.28;;;13.20;94.00;;;;;;5047249;28;20076;-60
2021/12/15 13:38:56;;;;;;;10.80;4.35;;;13.20;94.00;;;;;;5044126;28;20113;-61
2021/12/15 13:41:48;;;;;;;12.00;3.67;;;13.20;94.10;;;;;;5048157;28;20091;-61
2021/12/15 13:44:36;;;;;;;18.92;4.85;;;13.30;94.10;;;;;;5046329;28;20080;-59
2021/12/15 13:47:20;;;;;;;9.57;3.53;;;13.30;94.10;;;;;;5055238;28;20048;-61
2021/12/15 13:50:15;;;;;;;5.47;3.13;;;13.20;93.90;;;;;;5044370;28;20099;-60
2021/12/15 13:52:43;;;;;;;16.42;3.25;;;13.30;94.00;;;;;;5037670;28;20083;-60
2021/12/15 13:55:21;;;;;;;9.15;3.63;;;13.30;94.10;;;;;;5044332;28;20045;-60
2021/12/15 13:57:56;;;;;;;11.88;3.70;;;13.20;93.90;;;;;;5044237;28;20107;-60
2021/12/15 14:00:42;;;;;;;6.65;3.35;;;13.20;94.00;;;;;;5054112;28;20044;-60
2021/12/15 14:03:14;;;;;;;5.88;2.05;;;13.20;93.50;;;;;;5044614;28;20163;-61
2021/12/15 14:06:04;;;;;;;6.07;2.63;;;13.20;92.60;;;;;;5054069;28;20091;-60
2021/12/15 14:08:36;;;;;;;5.80;2.70;;;13.20;93.40;;;;;;5034020;28;20868;-60
2021/12/15 14:11:17;;;;;;;11.10;3.00;;;13.20;93.00;;;;;;5048761;28;20060;-59
2021/12/15 14:13:54;;;;;;;10.27;2.70;;;13.20;92.40;;;;;;5040919;28;20077;-60
2021/12/15 14:16:38;;;;;;;7.53;3.08;;;13.20;91.90;;;;;;5048000;28;20045;-59
2021/12/15 14:19:17;;;;;;;6.05;2.55;;;13.10;91.60;;;;;;5036169;28;20492;-60
2021/12/15 14:21:47;;;;;;;10.40;3.08;;;13.10;92.50;;;;;;5047631;28;20061;-60
2021/12/15 14:24:14;;;;;;;13.70;3.10;;;13.10;92.80;;;;;;5023342;28;20222;-60
2021/12/15 14:26:41;;;;;;;12.27;3.15;;;13.10;92.90;;;;;;5046249;28;20049;-60
2021/12/15 14:29:15;;;;;;;12.68;3.20;;;13.20;92.80;;;;;;5045455;28;20459;-60
2021/12/15 14:31:43;;;;;;;6.13;2.38;;;13.20;92.80;;;;;;5037259;28;20041;-61